sensor_id;sensor_type;location;lat;lon;timestamp;P1;durP1;ratioP1;P2;durP2;ratioP2
32138;SDS011;18644;48.700;9.210;2022-11-11T00:00:58;3.58;;;2.03;;
32138;SDS011;18644;48.700;9.210;2022-11-11T00:03:25;6.20;;;2.35;;
32138;SDS011;18644;48.700;9.210;2022-11-11T00:05:53;3.22;;;2.30;;
32138;SDS011;18644;48.700;9.210;2022-11-11T00:08:20;7.95;;;2.22;;
32138;SDS011;18644;48.700;9.210;2022-11-11T00:10:47;5.22;;;2.20;;
32138;SDS011;18644;48.700;9.210;2022-11-11T00:13:15;2.10;;;1.88;;
32138;SDS011;18644;48.700;9.210;2022-11-11T00:15:42;3.35;;;2.33;;
32138;SDS011;18644;48.700;9.210;2022-11-11T00:18:09;2.17;;;1.98;;
32138;SDS011;18644;48.700;9.210;2022-11-11T00:20:56;3.63;;;1.88;;
32138;SDS011;18644;48.700;9.210;2022-11-11T00:23:41;2.22;;;1.90;;
32138;SDS011;18644;48.700;9.210;2022-11-11T00:26:26;2.35;;;1.67;;
32138;SDS011;18644;48.700;9.210;2022-11-11T00:28:54;2.83;;;2.00;;
32138;SDS011;18644;48.700;9.210;2022-11-11T00:31:21;5.82;;;2.40;;
32138;SDS011;18644;48.700;9.210;2022-11-11T00:33:48;3.22;;;2.30;;
32138;SDS011;18644;48.700;9.210;2022-11-11T00:36:18;3.33;;;2.38;;
32138;SDS011;18644;48.700;9.210;2022-11-11T00:38:44;5.32;;;2.53;;
32138;SDS011;18644;48.700;9.210;2022-11-11T00:41:11;4.18;;;2.85;;
32138;SDS011;18644;48.700;9.210;2022-11-11T00:43:40;4.20;;;3.03;;
32138;SDS011;18644;48.700;9.210;2022-11-11T00:46:08;7.43;;;3.85;;
32138;SDS011;18644;48.700;9.210;2022-11-11T00:48:53;6.32;;;3.97;;
32138;SDS011;18644;48.700;9.210;2022-11-11T00:51:40;5.07;;;3.00;;
32138;SDS011;18644;48.700;9.210;2022-11-11T00:54:08;3.40;;;2.65;;
32138;SDS011;18644;48.700;9.210;2022-11-11T00:56:35;3.97;;;2.85;;
32138;SDS011;18644;48.700;9.210;2022-11-11T00:59:03;4.75;;;2.50;;
32138;SDS011;18644;48.700;9.210;2022-11-11T01:01:33;3.65;;;2.38;;
32138;SDS011;18644;48.700;9.210;2022-11-11T01:04:01;3.67;;;2.78;;
32138;SDS011;18644;48.700;9.210;2022-11-11T01:06:29;5.50;;;2.95;;
32138;SDS011;18644;48.700;9.210;2022-11-11T01:08:56;5.30;;;2.85;;
32138;SDS011;18644;48.700;9.210;2022-11-11T01:11:23;5.78;;;2.88;;
32138;SDS011;18644;48.700;9.210;2022-11-11T01:13:50;4.20;;;2.70;;
32138;SDS011;18644;48.700;9.210;2022-11-11T01:16:18;4.65;;;2.80;;
32138;SDS011;18644;48.700;9.210;2022-11-11T01:18:48;3.22;;;2.25;;
32138;SDS011;18644;48.700;9.210;2022-11-11T01:21:17;3.38;;;2.65;;
32138;SDS011;18644;48.700;9.210;2022-11-11T01:23:47;3.03;;;2.25;;
32138;SDS011;18644;48.700;9.210;2022-11-11T01:26:15;4.95;;;2.17;;
32138;SDS011;18644;48.700;9.210;2022-11-11T01:28:47;2.50;;;1.98;;
32138;SDS011;18644;48.700;9.210;2022-11-11T01:31:15;2.63;;;2.40;;
32138;SDS011;18644;48.700;9.210;2022-11-11T01:33:44;5.07;;;3.03;;
32138;SDS011;18644;48.700;9.210;2022-11-11T01:36:13;2.83;;;2.33;;
32138;SDS011;18644;48.700;9.210;2022-11-11T01:38:42;3.97;;;2.58;;
32138;SDS011;18644;48.700;9.210;2022-11-11T01:41:14;4.57;;;2.60;;
32138;SDS011;18644;48.700;9.210;2022-11-11T01:43:58;5.88;;;2.67;;
32138;SDS011;18644;48.700;9.210;2022-11-11T01:46:28;3.33;;;2.22;;
32138;SDS011;18644;48.700;9.210;2022-11-11T01:49:01;3.78;;;2.25;;
32138;SDS011;18644;48.700;9.210;2022-11-11T01:51:48;4.20;;;2.08;;
32138;SDS011;18644;48.700;9.210;2022-11-11T01:54:23;2.88;;;1.70;;
32138;SDS011;18644;48.700;9.210;2022-11-11T01:56:57;1.77;;;1.52;;
32138;SDS011;18644;48.700;9.210;2022-11-11T01:59:28;2.65;;;2.00;;
32138;SDS011;18644;48.700;9.210;2022-11-11T02:01:57;1.88;;;1.65;;
32138;SDS011;18644;48.700;9.210;2022-11-11T02:04:25;2.85;;;1.98;;
32138;SDS011;18644;48.700;9.210;2022-11-11T02:07:11;3.30;;;1.85;;
32138;SDS011;18644;48.700;9.210;2022-11-11T02:09:41;3.40;;;2.38;;
32138;SDS011;18644;48.700;9.210;2022-11-11T02:12:10;2.47;;;1.70;;
32138;SDS011;18644;48.700;9.210;2022-11-11T02:14:56;1.83;;;1.55;;
32138;SDS011;18644;48.700;9.210;2022-11-11T02:17:26;2.88;;;1.90;;
32138;SDS011;18644;48.700;9.210;2022-11-11T02:19:56;3.90;;;1.85;;
32138;SDS011;18644;48.700;9.210;2022-11-11T02:22:29;3.58;;;2.30;;
32138;SDS011;18644;48.700;9.210;2022-11-11T02:25:06;4.60;;;2.42;;
32138;SDS011;18644;48.700;9.210;2022-11-11T02:27:36;4.90;;;2.72;;
32138;SDS011;18644;48.700;9.210;2022-11-11T02:30:06;3.30;;;2.00;;
32138;SDS011;18644;48.700;9.210;2022-11-11T02:32:39;1.85;;;1.55;;
32138;SDS011;18644;48.700;9.210;2022-11-11T02:35:12;2.25;;;1.90;;
32138;SDS011;18644;48.700;9.210;2022-11-11T02:37:43;3.60;;;2.10;;
32138;SDS011;18644;48.700;9.210;2022-11-11T02:40:13;1.70;;;1.60;;
32138;SDS011;18644;48.700;9.210;2022-11-11T02:42:44;3.50;;;2.08;;
32138;SDS011;18644;48.700;9.210;2022-11-11T02:45:10;3.97;;;2.58;;
32138;SDS011;18644;48.700;9.210;2022-11-11T02:47:38;3.90;;;2.40;;
32138;SDS011;18644;48.700;9.210;2022-11-11T02:50:05;2.30;;;2.10;;
32138;SDS011;18644;48.700;9.210;2022-11-11T02:52:33;3.33;;;2.53;;
32138;SDS011;18644;48.700;9.210;2022-11-11T02:55:00;2.72;;;2.40;;
32138;SDS011;18644;48.700;9.210;2022-11-11T02:57:29;2.90;;;2.30;;
32138;SDS011;18644;48.700;9.210;2022-11-11T02:59:56;2.95;;;2.20;;
32138;SDS011;18644;48.700;9.210;2022-11-11T03:02:25;3.90;;;1.90;;
32138;SDS011;18644;48.700;9.210;2022-11-11T03:04:53;3.45;;;1.77;;
32138;SDS011;18644;48.700;9.210;2022-11-11T03:07:20;3.78;;;2.33;;
32138;SDS011;18644;48.700;9.210;2022-11-11T03:09:48;4.80;;;2.03;;
32138;SDS011;18644;48.700;9.210;2022-11-11T03:12:15;2.63;;;1.98;;
32138;SDS011;18644;48.700;9.210;2022-11-11T03:14:44;2.47;;;1.98;;
32138;SDS011;18644;48.700;9.210;2022-11-11T03:17:12;2.42;;;2.22;;
32138;SDS011;18644;48.700;9.210;2022-11-11T03:19:57;2.67;;;1.95;;
32138;SDS011;18644;48.700;9.210;2022-11-11T03:22:38;2.72;;;2.20;;
32138;SDS011;18644;48.700;9.210;2022-11-11T03:25:05;3.22;;;2.20;;
32138;SDS011;18644;48.700;9.210;2022-11-11T03:27:50;4.38;;;2.13;;
32138;SDS011;18644;48.700;9.210;2022-11-11T03:30:18;2.65;;;2.10;;
32138;SDS011;18644;48.700;9.210;2022-11-11T03:32:45;2.63;;;2.00;;
32138;SDS011;18644;48.700;9.210;2022-11-11T03:35:12;4.03;;;2.50;;
32138;SDS011;18644;48.700;9.210;2022-11-11T03:37:39;2.17;;;1.98;;
32138;SDS011;18644;48.700;9.210;2022-11-11T03:40:24;2.05;;;1.73;;
32138;SDS011;18644;48.700;9.210;2022-11-11T03:42:50;2.25;;;1.80;;
32138;SDS011;18644;48.700;9.210;2022-11-11T03:45:19;3.17;;;2.40;;
32138;SDS011;18644;48.700;9.210;2022-11-11T03:47:46;4.38;;;2.80;;
32138;SDS011;18644;48.700;9.210;2022-11-11T03:50:13;4.32;;;2.85;;
32138;SDS011;18644;48.700;9.210;2022-11-11T03:52:40;3.45;;;2.80;;
32138;SDS011;18644;48.700;9.210;2022-11-11T03:55:08;4.40;;;3.08;;
32138;SDS011;18644;48.700;9.210;2022-11-11T03:57:37;3.92;;;2.95;;
32138;SDS011;18644;48.700;9.210;2022-11-11T04:00:07;5.20;;;3.33;;
32138;SDS011;18644;48.700;9.210;2022-11-11T04:02:36;3.33;;;2.50;;
32138;SDS011;18644;48.700;9.210;2022-11-11T04:05:21;4.50;;;2.95;;
32138;SDS011;18644;48.700;9.210;2022-11-11T04:08:07;3.45;;;2.53;;
32138;SDS011;18644;48.700;9.210;2022-11-11T04:11:06;4.47;;;2.78;;
32138;SDS011;18644;48.700;9.210;2022-11-11T04:13:37;7.95;;;2.97;;
32138;SDS011;18644;48.700;9.210;2022-11-11T04:16:23;4.18;;;3.22;;
32138;SDS011;18644;48.700;9.210;2022-11-11T04:18:52;2.63;;;2.25;;
32138;SDS011;18644;48.700;9.210;2022-11-11T04:21:36;2.85;;;2.20;;
32138;SDS011;18644;48.700;9.210;2022-11-11T04:24:09;3.25;;;2.25;;
32138;SDS011;18644;48.700;9.210;2022-11-11T04:26:56;4.20;;;1.83;;
32138;SDS011;18644;48.700;9.210;2022-11-11T04:29:26;3.10;;;2.40;;
32138;SDS011;18644;48.700;9.210;2022-11-11T04:31:52;3.58;;;2.60;;
32138;SDS011;18644;48.700;9.210;2022-11-11T04:34:39;2.20;;;1.95;;
32138;SDS011;18644;48.700;9.210;2022-11-11T04:37:06;3.85;;;2.30;;
32138;SDS011;18644;48.700;9.210;2022-11-11T04:39:33;2.80;;;2.15;;
32138;SDS011;18644;48.700;9.210;2022-11-11T04:42:17;2.30;;;2.10;;
32138;SDS011;18644;48.700;9.210;2022-11-11T04:44:44;2.50;;;2.05;;
32138;SDS011;18644;48.700;9.210;2022-11-11T04:47:28;2.97;;;2.65;;
32138;SDS011;18644;48.700;9.210;2022-11-11T04:49:57;2.78;;;2.35;;
32138;SDS011;18644;48.700;9.210;2022-11-11T04:52:24;3.78;;;2.10;;
32138;SDS011;18644;48.700;9.210;2022-11-11T04:54:54;2.78;;;1.88;;
32138;SDS011;18644;48.700;9.210;2022-11-11T04:57:40;2.50;;;2.20;;
32138;SDS011;18644;48.700;9.210;2022-11-11T05:00:08;2.72;;;2.33;;
32138;SDS011;18644;48.700;9.210;2022-11-11T05:02:37;3.97;;;2.72;;
32138;SDS011;18644;48.700;9.210;2022-11-11T05:05:24;3.30;;;2.60;;
32138;SDS011;18644;48.700;9.210;2022-11-11T05:07:51;3.90;;;3.00;;
32138;SDS011;18644;48.700;9.210;2022-11-11T05:10:33;4.32;;;2.50;;
32138;SDS011;18644;48.700;9.210;2022-11-11T05:13:00;2.83;;;2.10;;
32138;SDS011;18644;48.700;9.210;2022-11-11T05:15:44;2.92;;;2.15;;
32138;SDS011;18644;48.700;9.210;2022-11-11T05:18:28;3.35;;;2.47;;
32138;SDS011;18644;48.700;9.210;2022-11-11T05:21:15;2.78;;;2.40;;
32138;SDS011;18644;48.700;9.210;2022-11-11T05:23:47;2.42;;;2.20;;
32138;SDS011;18644;48.700;9.210;2022-11-11T05:26:32;2.72;;;2.17;;
32138;SDS011;18644;48.700;9.210;2022-11-11T05:28:59;2.30;;;2.05;;
32138;SDS011;18644;48.700;9.210;2022-11-11T05:31:27;2.03;;;1.88;;
32138;SDS011;18644;48.700;9.210;2022-11-11T05:33:55;2.22;;;2.03;;
32138;SDS011;18644;48.700;9.210;2022-11-11T05:36:24;2.22;;;2.03;;
32138;SDS011;18644;48.700;9.210;2022-11-11T05:38:51;3.35;;;2.35;;
32138;SDS011;18644;48.700;9.210;2022-11-11T05:41:18;2.40;;;2.20;;
32138;SDS011;18644;48.700;9.210;2022-11-11T05:43:46;2.17;;;1.95;;
32138;SDS011;18644;48.700;9.210;2022-11-11T05:46:13;2.65;;;2.03;;
32138;SDS011;18644;48.700;9.210;2022-11-11T05:48:40;2.80;;;2.50;;
32138;SDS011;18644;48.700;9.210;2022-11-11T05:51:21;2.17;;;1.92;;
32138;SDS011;18644;48.700;9.210;2022-11-11T05:53:54;2.28;;;2.08;;
32138;SDS011;18644;48.700;9.210;2022-11-11T05:56:22;2.03;;;1.80;;
32138;SDS011;18644;48.700;9.210;2022-11-11T05:58:49;3.10;;;2.17;;
32138;SDS011;18644;48.700;9.210;2022-11-11T06:01:15;3.80;;;2.70;;
32138;SDS011;18644;48.700;9.210;2022-11-11T06:03:43;2.58;;;2.25;;
32138;SDS011;18644;48.700;9.210;2022-11-11T06:06:10;2.42;;;2.22;;
32138;SDS011;18644;48.700;9.210;2022-11-11T06:08:39;2.17;;;1.85;;
32138;SDS011;18644;48.700;9.210;2022-11-11T06:11:07;3.05;;;2.47;;
32138;SDS011;18644;48.700;9.210;2022-11-11T06:13:34;3.00;;;2.67;;
32138;SDS011;18644;48.700;9.210;2022-11-11T06:16:01;3.40;;;2.08;;
32138;SDS011;18644;48.700;9.210;2022-11-11T06:18:29;2.13;;;1.80;;
32138;SDS011;18644;48.700;9.210;2022-11-11T06:20:56;2.05;;;1.85;;
32138;SDS011;18644;48.700;9.210;2022-11-11T06:23:25;2.17;;;1.88;;
32138;SDS011;18644;48.700;9.210;2022-11-11T06:25:53;2.40;;;2.13;;
32138;SDS011;18644;48.700;9.210;2022-11-11T06:28:41;2.13;;;1.80;;
32138;SDS011;18644;48.700;9.210;2022-11-11T06:31:11;4.15;;;1.98;;
32138;SDS011;18644;48.700;9.210;2022-11-11T06:33:41;2.92;;;1.83;;
32138;SDS011;18644;48.700;9.210;2022-11-11T06:36:08;2.13;;;1.92;;
32138;SDS011;18644;48.700;9.210;2022-11-11T06:38:37;2.42;;;2.13;;
32138;SDS011;18644;48.700;9.210;2022-11-11T06:41:04;1.90;;;1.80;;
32138;SDS011;18644;48.700;9.210;2022-11-11T06:43:31;3.58;;;2.80;;
32138;SDS011;18644;48.700;9.210;2022-11-11T06:45:59;7.13;;;3.30;;
32138;SDS011;18644;48.700;9.210;2022-11-11T06:48:27;3.85;;;2.63;;
32138;SDS011;18644;48.700;9.210;2022-11-11T06:50:59;3.30;;;2.47;;
32138;SDS011;18644;48.700;9.210;2022-11-11T06:53:27;2.15;;;1.85;;
32138;SDS011;18644;48.700;9.210;2022-11-11T06:55:55;2.10;;;1.83;;
32138;SDS011;18644;48.700;9.210;2022-11-11T06:58:23;2.10;;;1.90;;
32138;SDS011;18644;48.700;9.210;2022-11-11T07:00:50;3.83;;;2.80;;
32138;SDS011;18644;48.700;9.210;2022-11-11T07:03:20;2.13;;;1.80;;
32138;SDS011;18644;48.700;9.210;2022-11-11T07:05:47;3.03;;;2.03;;
32138;SDS011;18644;48.700;9.210;2022-11-11T07:08:15;5.38;;;1.98;;
32138;SDS011;18644;48.700;9.210;2022-11-11T07:10:44;2.55;;;2.08;;
32138;SDS011;18644;48.700;9.210;2022-11-11T07:13:13;3.65;;;2.35;;
32138;SDS011;18644;48.700;9.210;2022-11-11T07:15:41;3.33;;;2.50;;
32138;SDS011;18644;48.700;9.210;2022-11-11T07:18:09;2.95;;;2.00;;
32138;SDS011;18644;48.700;9.210;2022-11-11T07:20:38;3.45;;;2.30;;
32138;SDS011;18644;48.700;9.210;2022-11-11T07:23:06;2.92;;;2.60;;
32138;SDS011;18644;48.700;9.210;2022-11-11T07:25:33;2.67;;;2.20;;
32138;SDS011;18644;48.700;9.210;2022-11-11T07:28:00;3.30;;;2.75;;
32138;SDS011;18644;48.700;9.210;2022-11-11T07:30:27;3.17;;;2.30;;
32138;SDS011;18644;48.700;9.210;2022-11-11T07:32:55;3.47;;;2.50;;
32138;SDS011;18644;48.700;9.210;2022-11-11T07:35:22;2.55;;;2.20;;
32138;SDS011;18644;48.700;9.210;2022-11-11T07:37:51;2.83;;;2.35;;
32138;SDS011;18644;48.700;9.210;2022-11-11T07:40:19;3.30;;;2.83;;
32138;SDS011;18644;48.700;9.210;2022-11-11T07:42:46;3.58;;;2.30;;
32138;SDS011;18644;48.700;9.210;2022-11-11T07:45:13;4.68;;;2.72;;
32138;SDS011;18644;48.700;9.210;2022-11-11T07:47:43;3.03;;;2.30;;
32138;SDS011;18644;48.700;9.210;2022-11-11T07:50:10;5.80;;;3.00;;
32138;SDS011;18644;48.700;9.210;2022-11-11T07:52:39;3.50;;;2.83;;
32138;SDS011;18644;48.700;9.210;2022-11-11T07:55:08;4.00;;;3.00;;
32138;SDS011;18644;48.700;9.210;2022-11-11T07:57:35;3.45;;;2.67;;
32138;SDS011;18644;48.700;9.210;2022-11-11T08:00:03;5.85;;;2.80;;
32138;SDS011;18644;48.700;9.210;2022-11-11T08:02:31;2.92;;;2.38;;
32138;SDS011;18644;48.700;9.210;2022-11-11T08:04:59;3.17;;;2.65;;
32138;SDS011;18644;48.700;9.210;2022-11-11T08:07:27;5.25;;;3.00;;
32138;SDS011;18644;48.700;9.210;2022-11-11T08:09:59;7.65;;;3.75;;
32138;SDS011;18644;48.700;9.210;2022-11-11T08:12:28;11.52;;;4.90;;
32138;SDS011;18644;48.700;9.210;2022-11-11T08:15:13;6.30;;;3.95;;
32138;SDS011;18644;48.700;9.210;2022-11-11T08:17:40;6.85;;;4.15;;
32138;SDS011;18644;48.700;9.210;2022-11-11T08:20:07;6.70;;;3.85;;
32138;SDS011;18644;48.700;9.210;2022-11-11T08:22:36;6.10;;;3.30;;
32138;SDS011;18644;48.700;9.210;2022-11-11T08:25:04;4.78;;;3.42;;
32138;SDS011;18644;48.700;9.210;2022-11-11T08:27:34;7.22;;;3.35;;
32138;SDS011;18644;48.700;9.210;2022-11-11T08:30:02;5.93;;;3.45;;
32138;SDS011;18644;48.700;9.210;2022-11-11T08:32:31;4.15;;;3.28;;
32138;SDS011;18644;48.700;9.210;2022-11-11T08:34:58;5.85;;;3.50;;
32138;SDS011;18644;48.700;9.210;2022-11-11T08:37:26;6.15;;;3.40;;
32138;SDS011;18644;48.700;9.210;2022-11-11T08:39:53;5.55;;;3.25;;
32138;SDS011;18644;48.700;9.210;2022-11-11T08:42:21;4.40;;;2.85;;
32138;SDS011;18644;48.700;9.210;2022-11-11T08:44:49;4.25;;;3.00;;
32138;SDS011;18644;48.700;9.210;2022-11-11T08:47:16;4.25;;;3.25;;
32138;SDS011;18644;48.700;9.210;2022-11-11T08:49:44;3.10;;;2.75;;
32138;SDS011;18644;48.700;9.210;2022-11-11T08:52:13;5.95;;;2.80;;
32138;SDS011;18644;48.700;9.210;2022-11-11T08:54:40;5.97;;;3.00;;
32138;SDS011;18644;48.700;9.210;2022-11-11T08:57:07;6.05;;;3.20;;
32138;SDS011;18644;48.700;9.210;2022-11-11T08:59:34;4.18;;;3.13;;
32138;SDS011;18644;48.700;9.210;2022-11-11T09:02:02;6.25;;;2.90;;
32138;SDS011;18644;48.700;9.210;2022-11-11T09:04:29;3.00;;;2.53;;
32138;SDS011;18644;48.700;9.210;2022-11-11T09:06:56;5.97;;;2.95;;
32138;SDS011;18644;48.700;9.210;2022-11-11T09:09:23;5.03;;;2.78;;
32138;SDS011;18644;48.700;9.210;2022-11-11T09:11:50;3.38;;;2.90;;
32138;SDS011;18644;48.700;9.210;2022-11-11T09:14:17;4.82;;;3.15;;
32138;SDS011;18644;48.700;9.210;2022-11-11T09:16:44;5.97;;;2.95;;
32138;SDS011;18644;48.700;9.210;2022-11-11T09:19:12;4.93;;;2.90;;
32138;SDS011;18644;48.700;9.210;2022-11-11T09:21:39;5.32;;;2.72;;
32138;SDS011;18644;48.700;9.210;2022-11-11T09:24:06;3.95;;;2.42;;
32138;SDS011;18644;48.700;9.210;2022-11-11T09:26:33;4.60;;;2.55;;
32138;SDS011;18644;48.700;9.210;2022-11-11T09:29:00;3.33;;;2.50;;
32138;SDS011;18644;48.700;9.210;2022-11-11T09:31:27;3.80;;;2.80;;
32138;SDS011;18644;48.700;9.210;2022-11-11T09:33:54;4.15;;;2.70;;
32138;SDS011;18644;48.700;9.210;2022-11-11T09:36:22;3.75;;;2.60;;
32138;SDS011;18644;48.700;9.210;2022-11-11T09:38:50;4.47;;;2.55;;
32138;SDS011;18644;48.700;9.210;2022-11-11T09:41:17;3.80;;;2.50;;
32138;SDS011;18644;48.700;9.210;2022-11-11T09:43:49;3.78;;;2.53;;
32138;SDS011;18644;48.700;9.210;2022-11-11T09:46:22;3.65;;;3.10;;
32138;SDS011;18644;48.700;9.210;2022-11-11T09:49:10;6.63;;;2.90;;
32138;SDS011;18644;48.700;9.210;2022-11-11T09:51:59;3.47;;;2.28;;
32138;SDS011;18644;48.700;9.210;2022-11-11T09:54:33;4.78;;;2.85;;
32138;SDS011;18644;48.700;9.210;2022-11-11T09:57:09;3.53;;;2.80;;
32138;SDS011;18644;48.700;9.210;2022-11-11T09:59:42;5.80;;;3.13;;
32138;SDS011;18644;48.700;9.210;2022-11-11T10:02:17;7.28;;;2.72;;
32138;SDS011;18644;48.700;9.210;2022-11-11T10:04:54;3.03;;;2.47;;
32138;SDS011;18644;48.700;9.210;2022-11-11T10:07:30;3.13;;;2.13;;
32138;SDS011;18644;48.700;9.210;2022-11-11T10:10:07;3.30;;;2.25;;
32138;SDS011;18644;48.700;9.210;2022-11-11T10:12:45;5.97;;;2.37;;
32138;SDS011;18644;48.700;9.210;2022-11-11T10:15:16;11.55;;;2.58;;
32138;SDS011;18644;48.700;9.210;2022-11-11T10:17:46;2.50;;;2.30;;
32138;SDS011;18644;48.700;9.210;2022-11-11T10:20:28;4.85;;;2.22;;
32138;SDS011;18644;48.700;9.210;2022-11-11T10:22:59;3.38;;;2.30;;
32138;SDS011;18644;48.700;9.210;2022-11-11T10:25:45;2.28;;;2.08;;
32138;SDS011;18644;48.700;9.210;2022-11-11T10:28:21;4.78;;;2.28;;
32138;SDS011;18644;48.700;9.210;2022-11-11T10:30:53;4.13;;;2.28;;
32138;SDS011;18644;48.700;9.210;2022-11-11T10:33:22;3.15;;;2.42;;
32138;SDS011;18644;48.700;9.210;2022-11-11T10:35:53;6.05;;;2.60;;
32138;SDS011;18644;48.700;9.210;2022-11-11T10:38:29;2.85;;;2.33;;
32138;SDS011;18644;48.700;9.210;2022-11-11T10:41:05;2.72;;;2.33;;
32138;SDS011;18644;48.700;9.210;2022-11-11T10:43:41;4.07;;;2.67;;
32138;SDS011;18644;48.700;9.210;2022-11-11T10:46:12;3.90;;;2.15;;
32138;SDS011;18644;48.700;9.210;2022-11-11T10:48:47;6.05;;;2.33;;
32138;SDS011;18644;48.700;9.210;2022-11-11T10:51:19;3.35;;;2.35;;
32138;SDS011;18644;48.700;9.210;2022-11-11T10:53:52;3.92;;;2.30;;
32138;SDS011;18644;48.700;9.210;2022-11-11T10:56:28;4.43;;;2.42;;
32138;SDS011;18644;48.700;9.210;2022-11-11T10:59:04;2.58;;;2.33;;
32138;SDS011;18644;48.700;9.210;2022-11-11T11:01:42;2.85;;;2.42;;
32138;SDS011;18644;48.700;9.210;2022-11-11T11:04:16;3.78;;;2.67;;
32138;SDS011;18644;48.700;9.210;2022-11-11T11:06:51;2.72;;;2.22;;
32138;SDS011;18644;48.700;9.210;2022-11-11T11:09:23;3.15;;;2.45;;
32138;SDS011;18644;48.700;9.210;2022-11-11T11:11:57;8.23;;;2.13;;
32138;SDS011;18644;48.700;9.210;2022-11-11T11:16:59;2.72;;;1.90;;
32138;SDS011;18644;48.700;9.210;2022-11-11T11:19:33;4.03;;;2.30;;
32138;SDS011;18644;48.700;9.210;2022-11-11T11:22:01;4.25;;;2.13;;
32138;SDS011;18644;48.700;9.210;2022-11-11T11:24:31;5.75;;;2.38;;
32138;SDS011;18644;48.700;9.210;2022-11-11T11:27:01;3.37;;;2.60;;
32138;SDS011;18644;48.700;9.210;2022-11-11T11:29:32;2.30;;;2.08;;
32138;SDS011;18644;48.700;9.210;2022-11-11T11:32:10;3.83;;;2.05;;
32138;SDS011;18644;48.700;9.210;2022-11-11T11:34:44;3.50;;;2.50;;
32138;SDS011;18644;48.700;9.210;2022-11-11T11:37:15;4.10;;;2.28;;
32138;SDS011;18644;48.700;9.210;2022-11-11T11:39:45;3.13;;;2.28;;
32138;SDS011;18644;48.700;9.210;2022-11-11T11:42:26;3.58;;;2.28;;
32138;SDS011;18644;48.700;9.210;2022-11-11T11:44:55;3.38;;;2.38;;
32138;SDS011;18644;48.700;9.210;2022-11-11T11:47:28;3.70;;;2.00;;
32138;SDS011;18644;48.700;9.210;2022-11-11T11:50:13;2.67;;;2.00;;
32138;SDS011;18644;48.700;9.210;2022-11-11T11:52:58;6.45;;;2.60;;
32138;SDS011;18644;48.700;9.210;2022-11-11T11:55:42;3.63;;;2.55;;
32138;SDS011;18644;48.700;9.210;2022-11-11T11:58:19;4.57;;;2.35;;
32138;SDS011;18644;48.700;9.210;2022-11-11T12:01:02;3.78;;;2.08;;
32138;SDS011;18644;48.700;9.210;2022-11-11T12:03:39;2.30;;;2.05;;
32138;SDS011;18644;48.700;9.210;2022-11-11T12:06:28;2.78;;;2.03;;
32138;SDS011;18644;48.700;9.210;2022-11-11T12:09:10;3.78;;;2.28;;
32138;SDS011;18644;48.700;9.210;2022-11-11T12:11:53;4.28;;;2.28;;
32138;SDS011;18644;48.700;9.210;2022-11-11T12:14:41;4.70;;;2.25;;
32138;SDS011;18644;48.700;9.210;2022-11-11T12:17:24;5.15;;;2.15;;
32138;SDS011;18644;48.700;9.210;2022-11-11T12:20:01;5.43;;;2.25;;
32138;SDS011;18644;48.700;9.210;2022-11-11T12:22:40;6.85;;;2.45;;
32138;SDS011;18644;48.700;9.210;2022-11-11T12:25:27;9.95;;;2.40;;
32138;SDS011;18644;48.700;9.210;2022-11-11T12:28:08;4.70;;;2.60;;
32138;SDS011;18644;48.700;9.210;2022-11-11T12:30:47;4.13;;;2.10;;
32138;SDS011;18644;48.700;9.210;2022-11-11T12:33:26;2.65;;;2.25;;
32138;SDS011;18644;48.700;9.210;2022-11-11T12:36:13;12.05;;;3.08;;
32138;SDS011;18644;48.700;9.210;2022-11-11T12:38:52;4.25;;;2.42;;
32138;SDS011;18644;48.700;9.210;2022-11-11T12:41:28;5.72;;;2.35;;
32138;SDS011;18644;48.700;9.210;2022-11-11T12:44:11;2.85;;;2.10;;
32138;SDS011;18644;48.700;9.210;2022-11-11T12:46:50;2.63;;;2.10;;
32138;SDS011;18644;48.700;9.210;2022-11-11T12:49:42;3.10;;;2.22;;
32138;SDS011;18644;48.700;9.210;2022-11-11T12:52:22;2.78;;;2.20;;
32138;SDS011;18644;48.700;9.210;2022-11-11T12:55:08;3.67;;;2.67;;
32138;SDS011;18644;48.700;9.210;2022-11-11T12:57:56;6.75;;;2.15;;
32138;SDS011;18644;48.700;9.210;2022-11-11T13:00:50;2.80;;;2.28;;
32138;SDS011;18644;48.700;9.210;2022-11-11T13:03:39;3.75;;;1.98;;
32138;SDS011;18644;48.700;9.210;2022-11-11T13:06:27;3.63;;;2.10;;
32138;SDS011;18644;48.700;9.210;2022-11-11T13:09:23;2.50;;;2.20;;
32138;SDS011;18644;48.700;9.210;2022-11-11T13:12:04;4.55;;;1.92;;
32138;SDS011;18644;48.700;9.210;2022-11-11T13:14:39;2.55;;;2.25;;
32138;SDS011;18644;48.700;9.210;2022-11-11T13:17:18;3.15;;;2.15;;
32138;SDS011;18644;48.700;9.210;2022-11-11T13:19:48;3.20;;;2.60;;
32138;SDS011;18644;48.700;9.210;2022-11-11T13:22:21;7.53;;;2.53;;
32138;SDS011;18644;48.700;9.210;2022-11-11T13:24:51;2.88;;;2.42;;
32138;SDS011;18644;48.700;9.210;2022-11-11T13:27:26;6.18;;;2.17;;
32138;SDS011;18644;48.700;9.210;2022-11-11T13:30:05;5.43;;;2.25;;
32138;SDS011;18644;48.700;9.210;2022-11-11T13:32:58;6.13;;;2.17;;
32138;SDS011;18644;48.700;9.210;2022-11-11T13:35:29;5.50;;;2.00;;
32138;SDS011;18644;48.700;9.210;2022-11-11T13:38:01;3.97;;;2.28;;
32138;SDS011;18644;48.700;9.210;2022-11-11T13:40:33;2.60;;;2.40;;
32138;SDS011;18644;48.700;9.210;2022-11-11T13:43:04;2.50;;;2.25;;
32138;SDS011;18644;48.700;9.210;2022-11-11T13:45:42;3.20;;;2.10;;
32138;SDS011;18644;48.700;9.210;2022-11-11T13:48:19;2.97;;;2.17;;
32138;SDS011;18644;48.700;9.210;2022-11-11T13:50:51;13.85;;;2.35;;
32138;SDS011;18644;48.700;9.210;2022-11-11T13:53:47;3.75;;;1.85;;
32138;SDS011;18644;48.700;9.210;2022-11-11T13:56:21;5.47;;;2.28;;
32138;SDS011;18644;48.700;9.210;2022-11-11T13:58:51;4.10;;;2.30;;
32138;SDS011;18644;48.700;9.210;2022-11-11T14:01:19;4.20;;;2.40;;
32138;SDS011;18644;48.700;9.210;2022-11-11T14:03:58;6.25;;;2.83;;
32138;SDS011;18644;48.700;9.210;2022-11-11T14:12:34;5.03;;;2.47;;
32138;SDS011;18644;48.700;9.210;2022-11-11T14:15:08;5.45;;;2.53;;
32138;SDS011;18644;48.700;9.210;2022-11-11T14:18:08;3.33;;;2.22;;
32138;SDS011;18644;48.700;9.210;2022-11-11T14:21:01;3.40;;;2.03;;
32138;SDS011;18644;48.700;9.210;2022-11-11T14:23:31;4.28;;;2.30;;
32138;SDS011;18644;48.700;9.210;2022-11-11T14:28:51;3.22;;;1.88;;
32138;SDS011;18644;48.700;9.210;2022-11-11T14:34:29;3.90;;;2.00;;
32138;SDS011;18644;48.700;9.210;2022-11-11T14:37:16;10.75;;;2.10;;
32138;SDS011;18644;48.700;9.210;2022-11-11T14:39:54;5.57;;;2.05;;
32138;SDS011;18644;48.700;9.210;2022-11-11T14:42:41;2.78;;;1.65;;
32138;SDS011;18644;48.700;9.210;2022-11-11T14:54:16;7.47;;;2.58;;
32138;SDS011;18644;48.700;9.210;2022-11-11T14:56:54;3.90;;;1.98;;
32138;SDS011;18644;48.700;9.210;2022-11-11T14:59:28;3.88;;;1.98;;
32138;SDS011;18644;48.700;9.210;2022-11-11T15:01:57;3.80;;;1.73;;
32138;SDS011;18644;48.700;9.210;2022-11-11T15:04:26;3.58;;;2.00;;
32138;SDS011;18644;48.700;9.210;2022-11-11T15:07:03;3.33;;;1.77;;
32138;SDS011;18644;48.700;9.210;2022-11-11T15:12:37;9.02;;;1.70;;
32138;SDS011;18644;48.700;9.210;2022-11-11T15:15:17;6.03;;;1.80;;
32138;SDS011;18644;48.700;9.210;2022-11-11T15:17:53;6.20;;;1.77;;
32138;SDS011;18644;48.700;9.210;2022-11-11T15:20:34;5.47;;;1.90;;
32138;SDS011;18644;48.700;9.210;2022-11-11T15:23:21;10.18;;;2.10;;
32138;SDS011;18644;48.700;9.210;2022-11-11T15:25:59;6.25;;;1.77;;
32138;SDS011;18644;48.700;9.210;2022-11-11T15:28:49;7.90;;;2.43;;
32138;SDS011;18644;48.700;9.210;2022-11-11T15:31:30;2.67;;;1.70;;
32138;SDS011;18644;48.700;9.210;2022-11-11T15:34:04;3.53;;;1.73;;
32138;SDS011;18644;48.700;9.210;2022-11-11T15:36:51;3.90;;;1.70;;
32138;SDS011;18644;48.700;9.210;2022-11-11T15:39:23;5.35;;;2.08;;
32138;SDS011;18644;48.700;9.210;2022-11-11T15:41:52;4.97;;;1.95;;
32138;SDS011;18644;48.700;9.210;2022-11-11T15:44:20;5.28;;;1.73;;
32138;SDS011;18644;48.700;9.210;2022-11-11T15:46:51;4.73;;;1.60;;
32138;SDS011;18644;48.700;9.210;2022-11-11T15:54:58;2.55;;;1.40;;